createdAt,value
2018-06-12T00:00:32.188Z,98.20
2018-06-12T00:05:28.561Z,98.20
2018-06-12T00:07:56.874Z,98.30
2018-06-12T00:10:25.208Z,98.20
2018-06-12T00:12:53.525Z,98.30
2018-06-12T00:15:21.858Z,98.30
2018-06-12T00:17:50.208Z,98.20
2018-06-12T00:20:18.541Z,98.20
2018-06-12T00:22:46.844Z,98.30
2018-06-12T00:25:15.168Z,98.30
2018-06-12T00:27:43.472Z,98.40
2018-06-12T00:30:11.794Z,98.50
2018-06-12T00:32:40.165Z,98.50
2018-06-12T00:35:08.497Z,98.40
2018-06-12T00:37:36.814Z,98.50
2018-06-12T00:40:05.171Z,98.60
2018-06-12T00:42:33.489Z,98.60
2018-06-12T00:45:01.819Z,98.70
2018-06-12T00:47:30.133Z,98.80
2018-06-12T00:49:58.487Z,98.80
2018-06-12T00:52:26.797Z,98.90
2018-06-12T00:54:55.124Z,98.90
2018-06-12T00:57:23.465Z,99.00
2018-06-12T00:59:51.841Z,99.10
2018-06-12T01:02:20.148Z,99.20
2018-06-12T01:09:44.617Z,99.50
2018-06-12T01:12:12.957Z,99.50
2018-06-12T01:17:09.372Z,99.30
2018-06-12T01:19:37.708Z,99.10
2018-06-12T01:22:06.066Z,99.10
2018-06-12T01:24:34.382Z,99.20
2018-06-12T01:27:02.719Z,99.30
2018-06-12T01:31:59.093Z,99.40
2018-06-12T01:34:27.416Z,99.30
2018-06-12T01:36:55.740Z,99.20
2018-06-12T01:39:24.048Z,99.10
2018-06-12T01:41:52.377Z,99.30
2018-06-12T01:46:48.741Z,99.50
2018-06-12T01:51:45.125Z,99.70
2018-06-12T01:54:13.436Z,99.70
2018-06-12T01:56:41.772Z,99.70
2018-06-12T01:59:10.100Z,99.70
2018-06-12T02:01:38.435Z,99.70
2018-06-12T02:04:06.740Z,99.60
2018-06-12T02:06:35.076Z,99.50
2018-06-12T02:11:31.501Z,99.40
2018-06-12T02:13:59.805Z,99.40
2018-06-12T02:16:28.137Z,99.80
2018-06-12T02:18:56.457Z,99.40
2018-06-12T02:21:24.777Z,99.40
2018-06-12T02:23:53.090Z,99.50
2018-06-12T02:26:21.433Z,99.50
2018-06-12T02:28:49.733Z,99.50
2018-06-12T02:31:18.062Z,99.40
2018-06-12T02:33:46.372Z,99.40
2018-06-12T02:36:14.715Z,99.40
2018-06-12T02:38:43.029Z,99.40
2018-06-12T02:41:11.361Z,99.40
2018-06-12T02:43:39.689Z,99.50
2018-06-12T02:46:08.045Z,99.60
2018-06-12T02:48:36.350Z,99.60
2018-06-12T02:51:04.669Z,99.60
2018-06-12T02:53:33.017Z,99.60
2018-06-12T02:56:01.344Z,99.60
2018-06-12T02:58:29.681Z,99.70
2018-06-12T03:00:57.989Z,99.70
2018-06-12T03:03:26.317Z,99.90
2018-06-12T03:05:54.637Z,99.90
2018-06-12T03:08:22.978Z,99.90
2018-06-12T03:10:51.296Z,99.90
2018-06-12T03:15:47.673Z,99.90
2018-06-12T03:18:16.016Z,99.80
2018-06-12T03:20:45.309Z,99.80
2018-06-12T03:23:13.695Z,99.90
2018-06-12T03:25:41.988Z,99.80
2018-06-12T03:28:10.323Z,99.70
2018-06-12T03:30:38.647Z,99.70
2018-06-12T03:33:06.976Z,99.70
2018-06-12T03:35:35.310Z,99.70
2018-06-12T03:38:03.643Z,99.70
2018-06-12T03:40:31.963Z,99.70
2018-06-12T03:43:00.292Z,99.60
2018-06-12T03:45:28.609Z,99.80
2018-06-12T03:52:53.064Z,99.90
2018-06-12T03:55:21.376Z,99.90
2018-06-12T03:57:49.746Z,99.90
2018-06-12T04:00:18.057Z,99.90
2018-06-12T04:02:46.384Z,99.90
2018-06-12T04:05:14.701Z,99.90
2018-06-12T04:07:43.099Z,99.90
2018-06-12T04:10:11.369Z,99.90
2018-06-12T04:12:39.697Z,99.90
2018-06-12T04:15:08.075Z,99.90
2018-06-12T04:17:36.382Z,99.90
2018-06-12T04:20:04.696Z,99.90
2018-06-12T04:25:01.070Z,99.90
2018-06-12T04:27:29.397Z,99.90
2018-06-12T04:29:57.740Z,99.90
2018-06-12T04:32:26.060Z,99.90
2018-06-12T04:34:54.403Z,99.90
2018-06-12T04:37:22.716Z,99.90
2018-06-12T04:39:51.064Z,99.90
2018-06-12T04:42:19.386Z,99.90
2018-06-12T04:44:47.711Z,99.90
2018-06-12T04:47:16.027Z,99.90
2018-06-12T04:49:44.376Z,99.90
2018-06-12T04:52:12.697Z,99.60
2018-06-12T04:54:41.066Z,99.40
2018-06-12T04:57:09.354Z,99.10
2018-06-12T04:59:37.716Z,98.80
2018-06-12T05:02:06.417Z,98.50
2018-06-12T05:04:34.736Z,97.80
2018-06-12T05:07:03.038Z,97.60
2018-06-12T05:09:31.379Z,97.40
2018-06-12T05:14:27.768Z,97.30
2018-06-12T05:16:56.090Z,97.40
2018-06-12T05:19:24.449Z,97.40
2018-06-12T05:21:52.779Z,97.30
2018-06-12T05:24:21.108Z,97.40
2018-06-12T05:26:49.425Z,97.40
2018-06-12T05:31:45.812Z,97.40
2018-06-12T05:34:14.172Z,97.70
2018-06-12T05:36:42.493Z,97.30
2018-06-12T05:39:11.617Z,97.30
2018-06-12T05:41:40.397Z,97.30
2018-06-12T05:44:08.777Z,97.10
2018-06-12T05:46:37.088Z,97.30
2018-06-12T05:51:33.509Z,97.00
2018-06-12T05:54:01.868Z,97.30
2018-06-12T05:56:30.186Z,97.10
2018-06-12T05:58:58.561Z,97.00
2018-06-12T06:01:26.905Z,97.20
2018-06-12T06:03:55.220Z,97.10
2018-06-12T06:06:23.561Z,97.10
2018-06-12T06:08:51.883Z,97.00
2018-06-12T06:11:20.212Z,97.20
2018-06-12T06:13:48.516Z,97.30
2018-06-12T06:16:16.844Z,97.10
2018-06-12T06:18:45.164Z,96.90
2018-06-12T06:21:13.511Z,97.00
2018-06-12T06:23:41.816Z,96.90
2018-06-12T06:26:10.148Z,97.10
2018-06-12T06:31:06.544Z,97.00
2018-06-12T06:36:02.912Z,96.70
2018-06-12T06:38:31.229Z,96.70
2018-06-12T06:40:59.545Z,96.60
2018-06-12T06:43:27.872Z,96.60
2018-06-12T06:45:56.210Z,96.80
2018-06-12T06:48:24.538Z,96.90
2018-06-12T06:50:52.881Z,96.80
2018-06-12T06:53:21.200Z,96.60
2018-06-12T06:55:49.537Z,96.50
2018-06-12T06:58:17.891Z,96.60
2018-06-12T07:00:46.229Z,96.80
2018-06-12T07:05:42.633Z,97.10
2018-06-12T07:08:10.937Z,97.00
2018-06-12T07:10:39.280Z,96.40
2018-06-12T07:13:07.589Z,95.90
2018-06-12T07:15:35.922Z,95.60
2018-06-12T07:18:04.238Z,96.20
2018-06-12T07:20:43.833Z,95.60
2018-06-12T07:23:12.157Z,95.60
2018-06-12T07:25:40.509Z,95.60
2018-06-12T07:28:08.821Z,96.00
2018-06-12T07:30:37.149Z,96.20
2018-06-12T07:33:05.681Z,96.30
2018-06-12T07:35:34.017Z,96.30
2018-06-12T07:38:02.342Z,95.80
2018-06-12T07:40:30.672Z,95.60
2018-06-12T07:42:59.008Z,94.90
2018-06-12T07:45:27.351Z,95.00
2018-06-12T07:47:55.655Z,94.60
2018-06-12T07:50:24.013Z,94.50
2018-06-12T07:52:52.464Z,94.30
2018-06-12T07:55:20.769Z,94.10
2018-06-12T07:57:49.113Z,94.10
2018-06-12T08:00:17.465Z,94.10
2018-06-12T08:02:45.801Z,94.10
2018-06-12T08:05:14.113Z,94.30
2018-06-12T08:07:42.450Z,94.20
2018-06-12T08:10:10.770Z,94.00
2018-06-12T08:12:39.111Z,93.90
2018-06-12T08:15:07.455Z,93.90
2018-06-12T08:17:35.794Z,94.30
2018-06-12T08:20:04.142Z,94.50
2018-06-12T08:22:32.489Z,94.50
2018-06-12T08:27:28.876Z,94.70
2018-06-12T08:29:57.313Z,95.00
2018-06-12T08:32:25.540Z,95.10
2018-06-12T08:34:53.852Z,95.20
2018-06-12T08:37:22.181Z,95.30
2018-06-12T08:39:50.550Z,95.20
2018-06-12T08:42:18.844Z,94.90
2018-06-12T08:44:47.165Z,94.70
2018-06-12T08:47:16.205Z,94.80
2018-06-12T08:49:44.510Z,94.60
2018-06-12T08:52:12.840Z,94.70
2018-06-12T08:54:41.144Z,94.40
2018-06-12T08:57:09.486Z,93.80
2018-06-12T08:59:37.820Z,93.50
2018-06-12T09:02:06.467Z,93.40
2018-06-12T09:07:02.845Z,93.10
2018-06-12T09:09:31.161Z,92.80
2018-06-12T09:11:59.504Z,92.80
2018-06-12T09:14:27.828Z,92.60
2018-06-12T09:16:56.170Z,92.50
2018-06-12T09:19:24.481Z,93.00
2018-06-12T09:21:52.830Z,93.60
2018-06-12T09:24:21.153Z,93.10
2018-06-12T09:26:50.342Z,93.00
2018-06-12T09:29:18.663Z,93.10
2018-06-12T09:31:46.989Z,93.00
2018-06-12T09:34:15.357Z,92.50
2018-06-12T09:36:43.752Z,92.70
2018-06-12T09:39:12.077Z,92.20
2018-06-12T09:41:40.387Z,91.90
2018-06-12T09:44:08.717Z,92.10
2018-06-12T09:46:37.060Z,91.80
2018-06-12T09:49:05.469Z,91.80
2018-06-12T09:51:33.770Z,91.70
2018-06-12T09:54:02.137Z,90.70
2018-06-12T09:56:30.517Z,90.00
2018-06-12T10:01:27.573Z,87.70
2018-06-12T10:03:55.917Z,85.80
2018-06-12T10:06:24.261Z,81.20
2018-06-12T10:08:52.795Z,81.30
2018-06-12T10:11:21.224Z,82.90
2018-06-12T10:13:49.717Z,81.10
2018-06-12T10:16:18.144Z,78.70
2018-06-12T10:18:46.514Z,77.00
2018-06-12T10:21:14.837Z,75.00
2018-06-12T10:23:43.172Z,77.70
2018-06-12T10:26:11.497Z,76.10
2018-06-12T10:28:40.500Z,77.50
2018-06-12T10:33:36.916Z,76.40
2018-06-12T10:36:05.277Z,77.40
2018-06-12T10:38:33.622Z,77.60
2018-06-12T10:41:02.018Z,76.20
2018-06-12T10:43:30.365Z,76.90
2018-06-12T10:45:58.689Z,77.60
2018-06-12T10:48:27.078Z,75.00
2018-06-12T10:50:55.396Z,72.80
2018-06-12T10:53:23.969Z,74.50
2018-06-12T10:58:21.731Z,76.00
2018-06-12T11:00:50.701Z,76.80
2018-06-12T11:03:19.245Z,74.70
2018-06-12T11:05:47.928Z,76.10
2018-06-12T11:08:16.284Z,75.00
2018-06-12T11:10:45.693Z,73.10
2018-06-12T11:15:42.184Z,69.20
2018-06-12T11:18:10.518Z,72.20
2018-06-12T11:23:06.926Z,71.70
2018-06-12T11:25:35.228Z,71.70
2018-06-12T11:28:03.553Z,71.50
2018-06-12T11:30:31.886Z,71.90
2018-06-12T11:33:00.248Z,71.90
2018-06-12T11:35:28.525Z,76.50
2018-06-12T11:37:56.857Z,78.20
2018-06-12T11:40:25.193Z,81.60
2018-06-12T11:42:53.542Z,84.50
2018-06-12T11:45:21.884Z,87.30
2018-06-12T11:47:50.262Z,89.10
2018-06-12T11:50:18.625Z,91.00
2018-06-12T11:52:46.952Z,91.90
2018-06-12T11:55:15.295Z,92.90
2018-06-12T11:57:43.613Z,94.30
2018-06-12T12:00:11.965Z,94.80
2018-06-12T12:05:08.357Z,96.80
2018-06-12T12:07:36.908Z,96.90
2018-06-12T12:10:05.246Z,97.60
2018-06-12T12:12:33.563Z,98.00
2018-06-12T12:15:01.908Z,98.40
2018-06-12T12:17:30.221Z,98.50
2018-06-12T12:19:58.785Z,98.90
2018-06-12T12:24:55.185Z,98.90
2018-06-12T12:27:23.509Z,98.90
2018-06-12T12:29:51.861Z,99.20
2018-06-12T12:32:20.237Z,98.70
2018-06-12T12:34:48.582Z,98.70
2018-06-12T12:37:16.892Z,98.90
2018-06-12T12:39:45.249Z,98.60
2018-06-12T12:42:13.573Z,99.10
2018-06-12T12:44:41.912Z,98.90
2018-06-12T12:47:10.257Z,99.20
2018-06-12T12:52:06.718Z,99.10
2018-06-12T12:54:35.074Z,99.20
2018-06-12T12:57:03.437Z,98.50
2018-06-12T12:59:31.772Z,98.10
2018-06-12T13:02:00.110Z,98.10
2018-06-12T13:04:28.424Z,98.70
2018-06-12T13:06:56.757Z,98.80
2018-06-12T13:09:25.086Z,99.20
2018-06-12T13:11:53.425Z,99.40
2018-06-12T13:14:21.732Z,99.90
2018-06-12T13:16:50.073Z,99.90
2018-06-12T13:19:18.391Z,99.90
2018-06-12T13:21:46.720Z,99.90
2018-06-12T13:24:15.040Z,99.70
2018-06-12T13:26:43.439Z,99.90
2018-06-12T13:29:11.717Z,99.30
2018-06-12T13:31:40.065Z,99.90
2018-06-12T13:34:08.390Z,99.90
2018-06-12T13:36:36.726Z,99.40
2018-06-12T13:41:33.752Z,99.50
2018-06-12T13:44:02.080Z,99.60
2018-06-12T13:46:30.460Z,99.90
2018-06-12T13:48:58.753Z,99.90
2018-06-12T13:51:27.096Z,99.90
2018-06-12T13:53:55.400Z,99.90
2018-06-12T13:56:23.746Z,99.90
2018-06-12T13:58:52.085Z,99.90
2018-06-12T14:01:20.420Z,99.90
2018-06-12T14:03:48.745Z,99.90
2018-06-12T14:06:17.089Z,99.90
2018-06-12T14:08:45.409Z,99.90
2018-06-12T14:11:13.762Z,99.90
2018-06-12T14:13:42.176Z,99.90
2018-06-12T14:16:10.433Z,99.90
2018-06-12T14:18:38.744Z,99.90
2018-06-12T14:21:07.081Z,99.90
2018-06-12T14:23:35.401Z,99.90
2018-06-12T14:26:03.741Z,99.90
2018-06-12T14:28:32.062Z,99.90
2018-06-12T14:31:00.421Z,99.90
2018-06-12T14:33:28.741Z,99.90
2018-06-12T14:38:25.197Z,99.90
2018-06-12T14:43:21.577Z,99.90
2018-06-12T14:45:49.892Z,99.90
2018-06-12T14:48:18.242Z,99.90
2018-06-12T14:50:46.589Z,99.90
2018-06-12T14:58:11.065Z,99.90
2018-06-12T15:00:39.382Z,99.90
2018-06-12T15:03:07.716Z,99.90
2018-06-12T15:05:36.047Z,99.90
2018-06-12T15:08:04.407Z,99.90
2018-06-12T15:10:32.729Z,99.90
2018-06-12T15:13:01.076Z,99.90
2018-06-12T15:17:57.472Z,98.90
2018-06-12T15:20:25.781Z,98.70
2018-06-12T15:22:54.133Z,99.50
2018-06-12T15:25:22.489Z,99.80
2018-06-12T15:27:50.844Z,99.50
2018-06-12T15:30:19.231Z,99.50
2018-06-12T15:32:47.589Z,98.70
2018-06-12T15:35:15.913Z,98.80
2018-06-12T15:37:44.253Z,98.40
2018-06-12T15:40:12.581Z,98.30
2018-06-12T15:42:40.950Z,98.90
2018-06-12T15:45:09.271Z,99.10
2018-06-12T15:47:37.613Z,99.20
2018-06-12T15:50:05.963Z,99.00
2018-06-12T15:52:34.336Z,99.00
2018-06-12T15:55:02.650Z,98.90
2018-06-12T15:57:30.981Z,98.80
2018-06-12T15:59:59.306Z,98.60
2018-06-12T16:02:27.637Z,98.10
2018-06-12T16:04:55.985Z,97.90
2018-06-12T16:07:24.369Z,98.00
2018-06-12T16:09:52.722Z,98.40
2018-06-12T16:12:21.038Z,98.10
2018-06-12T16:14:49.365Z,98.20
2018-06-12T16:17:17.669Z,98.00
2018-06-12T16:19:46.021Z,97.70
2018-06-12T16:24:42.409Z,98.00
2018-06-12T16:27:10.713Z,98.00
2018-06-12T16:29:39.048Z,98.00
2018-06-12T16:32:07.364Z,97.70
2018-06-12T16:34:35.728Z,97.70
2018-06-12T16:37:04.053Z,97.40
2018-06-12T16:42:00.452Z,97.20
2018-06-12T16:44:28.793Z,97.20
2018-06-12T16:46:57.098Z,97.50
2018-06-12T16:49:25.434Z,97.40
2018-06-12T16:51:53.774Z,97.60
2018-06-12T16:54:22.108Z,97.70
2018-06-12T16:56:50.431Z,97.60
2018-06-12T16:59:18.825Z,97.80
2018-06-12T17:01:47.136Z,98.00
2018-06-12T17:04:15.469Z,97.60
2018-06-12T17:06:43.806Z,97.70
2018-06-12T17:14:10.814Z,97.50
2018-06-12T17:16:39.136Z,97.50
2018-06-12T17:19:07.497Z,97.60
2018-06-12T17:21:35.920Z,97.70
2018-06-12T17:26:32.325Z,98.30
2018-06-12T17:29:00.677Z,98.00
2018-06-12T17:31:29.164Z,97.30
2018-06-12T17:33:57.525Z,96.80
2018-06-12T17:36:25.870Z,96.40
2018-06-12T17:38:54.195Z,96.70
2018-06-12T17:41:22.509Z,96.90
2018-06-12T17:43:50.893Z,96.80
2018-06-12T17:46:19.200Z,96.80
2018-06-12T17:48:47.544Z,97.30
2018-06-12T17:51:15.861Z,97.40
2018-06-12T17:53:44.206Z,97.30
2018-06-12T17:56:12.517Z,96.90
2018-06-12T17:58:40.894Z,96.70
2018-06-12T18:01:09.202Z,96.90
2018-06-12T18:03:37.549Z,97.10
2018-06-12T18:06:05.886Z,97.00
2018-06-12T18:11:02.276Z,96.20
2018-06-12T18:13:30.588Z,96.70
2018-06-12T18:15:58.920Z,97.30
2018-06-12T18:18:27.245Z,97.70
2018-06-12T18:20:55.572Z,98.50
2018-06-12T18:23:23.912Z,99.20
2018-06-12T18:25:52.241Z,99.90
2018-06-12T18:28:20.558Z,99.90
2018-06-12T18:30:48.903Z,99.90
2018-06-12T18:33:17.246Z,99.90
2018-06-12T18:35:45.609Z,99.90
2018-06-12T18:38:13.926Z,99.90
2018-06-12T18:40:42.281Z,99.90
2018-06-12T18:45:38.684Z,99.90
2018-06-12T18:48:07.001Z,99.90
2018-06-12T18:50:35.337Z,99.90
2018-06-12T18:53:03.653Z,99.90
2018-06-12T18:55:31.981Z,99.90
2018-06-12T18:58:00.308Z,99.90
2018-06-12T19:00:28.652Z,99.90
2018-06-12T19:02:56.977Z,99.90
2018-06-12T19:05:25.325Z,99.90
2018-06-12T19:07:53.646Z,99.90
2018-06-12T19:10:21.983Z,99.90
2018-06-12T19:12:50.301Z,99.90
2018-06-12T19:22:42.849Z,99.90
2018-06-12T19:25:11.181Z,99.90
2018-06-12T19:27:39.505Z,99.90
2018-06-12T19:30:07.853Z,99.90
2018-06-12T19:35:04.262Z,99.90
2018-06-12T19:37:32.586Z,99.90
2018-06-12T19:40:00.912Z,99.90
2018-06-12T19:42:29.282Z,99.90
2018-06-12T19:44:58.222Z,99.90
2018-06-12T19:47:26.542Z,99.90
2018-06-12T19:49:54.887Z,99.90
2018-06-12T19:52:23.547Z,99.90
2018-06-12T19:54:51.982Z,99.90
2018-06-12T19:57:20.313Z,99.90
2018-06-12T19:59:48.647Z,99.90
2018-06-12T20:02:16.976Z,99.90
2018-06-12T20:07:13.366Z,99.90
2018-06-12T20:09:41.688Z,99.90
2018-06-12T20:12:10.030Z,99.90
2018-06-12T20:14:38.346Z,99.90
2018-06-12T20:17:06.689Z,99.90
2018-06-12T20:19:35.023Z,99.90
2018-06-12T20:22:03.352Z,99.90
2018-06-12T20:24:31.669Z,99.90
2018-06-12T20:27:00.022Z,99.90
2018-06-12T20:29:28.357Z,99.90
2018-06-12T20:31:56.689Z,99.90
2018-06-12T20:34:25.076Z,99.90
2018-06-12T20:36:53.424Z,99.90
2018-06-12T20:39:21.733Z,99.90
2018-06-12T20:41:50.072Z,99.90
2018-06-12T20:44:18.392Z,99.90
2018-06-12T20:46:46.805Z,99.90
2018-06-12T20:49:15.125Z,99.90
2018-06-12T20:51:43.487Z,99.90
2018-06-12T20:54:11.896Z,99.90
2018-06-12T20:56:40.244Z,99.90
2018-06-12T20:59:08.601Z,99.90
2018-06-12T21:01:36.932Z,99.90
2018-06-12T21:04:05.244Z,99.90
2018-06-12T21:06:33.603Z,99.90
2018-06-12T21:09:01.925Z,99.90
2018-06-12T21:11:30.252Z,99.90
2018-06-12T21:13:58.589Z,99.90
2018-06-12T21:16:26.904Z,99.90
2018-06-12T21:18:55.241Z,99.90
2018-06-12T21:21:23.572Z,99.90
2018-06-12T21:23:51.911Z,99.90
2018-06-12T21:26:20.232Z,99.90
2018-06-12T21:28:48.556Z,99.90
2018-06-12T21:31:16.881Z,99.90
2018-06-12T21:33:45.222Z,99.90
2018-06-12T21:36:13.549Z,99.90
2018-06-12T21:38:41.883Z,99.90
2018-06-12T21:41:10.208Z,99.90
2018-06-12T21:43:38.549Z,99.90
2018-06-12T21:46:06.863Z,99.90
2018-06-12T21:48:35.199Z,99.90
2018-06-12T21:51:03.522Z,99.90
2018-06-12T21:53:31.859Z,99.90
2018-06-12T21:56:00.177Z,99.90
2018-06-12T21:58:28.538Z,99.90
2018-06-12T22:00:56.857Z,99.90
2018-06-12T22:03:25.193Z,99.90
2018-06-12T22:05:53.500Z,99.90
2018-06-12T22:08:21.838Z,99.90
2018-06-12T22:10:50.176Z,99.90
2018-06-12T22:15:46.559Z,99.90
2018-06-12T22:18:14.889Z,99.90
2018-06-12T22:20:43.200Z,99.90
2018-06-12T22:23:11.529Z,99.90
2018-06-12T22:25:39.860Z,99.90
2018-06-12T22:28:08.196Z,99.90
2018-06-12T22:30:36.502Z,99.90
2018-06-12T22:33:04.889Z,99.90
2018-06-12T22:35:33.201Z,99.90
2018-06-12T22:38:01.546Z,99.90
2018-06-12T22:40:29.865Z,99.90
2018-06-12T22:42:58.196Z,99.90
2018-06-12T22:50:22.682Z,99.90
2018-06-12T22:52:51.010Z,99.90
2018-06-12T22:55:19.340Z,99.90
2018-06-12T22:57:47.722Z,99.90
2018-06-12T23:00:19.616Z,99.90
2018-06-12T23:05:16.002Z,99.90
2018-06-12T23:07:44.313Z,99.90
2018-06-12T23:10:12.673Z,99.90
2018-06-12T23:12:40.986Z,99.90
2018-06-12T23:15:09.353Z,99.90
2018-06-12T23:17:37.671Z,99.90
2018-06-12T23:20:17.266Z,99.90
2018-06-12T23:22:45.572Z,99.90
2018-06-12T23:25:13.900Z,99.90
2018-06-12T23:27:42.204Z,99.90
2018-06-12T23:30:10.537Z,99.90
2018-06-12T23:32:38.841Z,99.90
2018-06-12T23:35:07.164Z,99.90
2018-06-12T23:37:35.472Z,99.90
2018-06-12T23:40:03.832Z,99.90
2018-06-12T23:45:00.205Z,99.90
2018-06-12T23:47:28.509Z,99.90
2018-06-12T23:49:56.840Z,99.90
2018-06-12T23:54:53.220Z,99.90
2018-06-12T23:57:21.533Z,99.90
2018-06-12T23:59:49.878Z,99.90
